Time,TemperatureF,DewpointF,PressureIn,WindDirection,WindDirectionDegrees,WindSpeedMPH,WindSpeedGustMPH,Humidity,HourlyPrecipIn,Conditions,Clouds,dailyrainin,SoftwareType,DateUTC
2013-04-04 00:02:00,61.0,24.0,30.01,West,259,1.0,3.0,24,0.00,,,0.00,,2013-04-04 06:02:00,
2013-04-04 00:12:00,61.0,24.0,30.01,West,259,1.0,3.0,24,0.00,,,0.00,,2013-04-04 06:12:00,
2013-04-04 00:22:00,61.0,24.0,30.01,West,259,0.0,2.0,24,0.00,,,0.00,,2013-04-04 06:22:00,
2013-04-04 00:32:00,59.0,25.0,30.02,NE,47,3.0,4.0,27,0.00,,,0.00,,2013-04-04 06:32:00,
2013-04-04 00:42:00,59.0,25.0,30.02,NE,47,3.0,4.0,27,0.00,,,0.00,,2013-04-04 06:42:00,
2013-04-04 00:53:00,59.0,24.0,30.02,NNE,26,2.0,5.0,26,0.00,,,0.00,,2013-04-04 06:53:00,
2013-04-04 01:02:00,60.0,25.0,30.02,North,9,3.0,5.0,26,0.00,,,0.00,,2013-04-04 07:02:00,
2013-04-04 01:12:00,60.0,25.0,30.02,North,9,3.0,5.0,26,0.00,,,0.00,,2013-04-04 07:12:00,
2013-04-04 01:22:00,58.0,25.0,30.03,NNE,22,6.0,9.0,28,0.00,,,0.00,,2013-04-04 07:22:00,
2013-04-04 01:32:00,57.0,25.0,30.03,NNW,342,8.0,10.0,29,0.00,,,0.00,,2013-04-04 07:32:00,
2013-04-04 01:43:00,57.0,25.0,30.03,NNW,342,8.0,10.0,29,0.00,,,0.00,,2013-04-04 07:43:00,
2013-04-04 01:53:00,57.0,25.0,30.03,NW,312,7.0,9.0,29,0.00,,,0.00,,2013-04-04 07:53:00,
2013-04-04 02:02:00,57.0,25.0,30.03,NW,315,8.0,10.0,29,0.00,,,0.00,,2013-04-04 08:02:00,
2013-04-04 02:12:00,57.0,25.0,30.03,NW,315,8.0,10.0,29,0.00,,,0.00,,2013-04-04 08:12:00,
2013-04-04 02:22:00,56.0,25.0,30.03,NNW,328,8.0,10.0,30,0.00,,,0.00,,2013-04-04 08:22:00,
2013-04-04 02:32:00,57.0,26.0,30.03,NW,325,6.0,8.0,30,0.00,,,0.00,,2013-04-04 08:32:00,
2013-04-04 02:43:00,57.0,26.0,30.03,NW,325,6.0,8.0,30,0.00,,,0.00,,2013-04-04 08:43:00,
2013-04-04 02:52:00,56.0,25.0,30.03,NNW,327,6.0,9.0,30,0.00,,,0.00,,2013-04-04 08:52:00,
2013-04-04 03:02:00,57.0,25.0,30.04,NNW,346,6.0,7.0,29,0.00,,,0.00,,2013-04-04 09:02:00,
2013-04-04 03:12:00,57.0,25.0,30.04,NNW,346,6.0,7.0,29,0.00,,,0.00,,2013-04-04 09:12:00,
2013-04-04 03:22:00,57.0,25.0,30.03,NNW,340,4.0,8.0,29,0.00,,,0.00,,2013-04-04 09:22:00,
2013-04-04 03:33:00,54.0,24.0,30.03,NNE,24,4.0,7.0,31,0.00,,,0.00,,2013-04-04 09:33:00,
2013-04-04 03:43:00,54.0,24.0,30.03,NNE,24,4.0,7.0,31,0.00,,,0.00,,2013-04-04 09:43:00,
2013-04-04 03:54:00,54.0,25.0,30.03,NE,55,5.0,7.0,32,0.00,,,0.00,,2013-04-04 09:54:00,
2013-04-04 04:04:00,53.0,25.0,30.04,NE,46,3.0,6.0,33,0.00,,,0.00,,2013-04-04 10:04:00,
2013-04-04 04:12:00,53.0,25.0,30.04,NE,46,3.0,6.0,33,0.00,,,0.00,,2013-04-04 10:12:00,
2013-04-04 04:23:00,54.0,25.0,30.04,ENE,66,5.0,8.0,32,0.00,,,0.00,,2013-04-04 10:23:00,
2013-04-04 04:33:00,54.0,25.0,30.04,ENE,66,5.0,8.0,32,0.00,,,0.00,,2013-04-04 10:33:00,
2013-04-04 04:42:00,54.0,25.0,30.04,ENE,66,5.0,8.0,32,0.00,,,0.00,,2013-04-04 10:42:00,
2013-04-04 04:54:00,53.0,25.0,30.04,ENE,62,7.0,9.0,33,0.00,,,0.00,,2013-04-04 10:54:00,
2013-04-04 05:02:00,53.0,25.0,30.05,ENE,60,6.0,8.0,34,0.00,,,0.00,,2013-04-04 11:02:00,
2013-04-04 05:12:00,53.0,25.0,30.05,ENE,60,6.0,8.0,34,0.00,,,0.00,,2013-04-04 11:12:00,
2013-04-04 05:22:00,54.0,26.0,30.06,NE,44,4.0,6.0,33,0.00,,,0.00,,2013-04-04 11:22:00,
2013-04-04 05:32:00,54.0,26.0,30.06,NNE,24,2.0,7.0,33,0.00,,,0.00,,2013-04-04 11:32:00,
2013-04-04 05:42:00,54.0,26.0,30.06,NNE,24,2.0,7.0,33,0.00,,,0.00,,2013-04-04 11:42:00,
2013-04-04 05:54:00,54.0,26.0,30.06,North,5,4.0,7.0,34,0.00,,,0.00,,2013-04-04 11:54:00,
2013-04-04 06:02:00,53.0,25.0,30.06,NE,38,2.0,5.0,33,0.00,,,0.00,,2013-04-04 12:02:00,
2013-04-04 06:12:00,53.0,25.0,30.06,NE,38,2.0,5.0,33,0.00,,,0.00,,2013-04-04 12:12:00,
2013-04-04 06:22:00,53.0,25.0,30.07,NE,49,5.0,6.0,33,0.00,,,0.00,,2013-04-04 12:22:00,
2013-04-04 06:32:00,52.0,25.0,30.06,ENE,71,10.0,12.0,34,0.00,,,0.00,,2013-04-04 12:32:00,
2013-04-04 06:43:00,52.0,25.0,30.06,ENE,71,10.0,12.0,34,0.00,,,0.00,,2013-04-04 12:43:00,
2013-04-04 06:52:00,50.0,23.0,30.06,ENE,73,13.0,14.0,35,0.00,,,0.00,,2013-04-04 12:52:00,
2013-04-04 07:02:00,51.0,24.0,30.07,ENE,72,14.0,16.0,35,0.00,,,0.00,,2013-04-04 13:02:00,
2013-04-04 07:12:00,51.0,24.0,30.07,ENE,72,14.0,16.0,35,0.00,,,0.00,,2013-04-04 13:12:00,
2013-04-04 07:22:00,51.0,24.0,30.07,ENE,72,13.0,16.0,35,0.00,,,0.00,,2013-04-04 13:22:00,
2013-04-04 07:32:00,51.0,24.0,30.08,ENE,61,13.0,15.0,34,0.00,,,0.00,,2013-04-04 13:32:00,
2013-04-04 07:42:00,51.0,24.0,30.08,ENE,61,13.0,15.0,34,0.00,,,0.00,,2013-04-04 13:42:00,
2013-04-04 07:53:00,53.0,25.0,30.09,NE,49,10.0,13.0,33,0.00,,,0.00,,2013-04-04 13:53:00,
2013-04-04 08:03:00,54.0,26.0,30.09,NE,44,10.0,11.0,33,0.00,,,0.00,,2013-04-04 14:03:00,
2013-04-04 08:12:00,54.0,26.0,30.09,NE,44,10.0,11.0,33,0.00,,,0.00,,2013-04-04 14:12:00,
2013-04-04 08:22:00,55.0,25.0,30.10,ENE,61,10.0,11.0,31,0.00,,,0.00,,2013-04-04 14:22:00,
2013-04-04 08:32:00,56.0,26.0,30.10,ENE,63,10.0,11.0,31,0.00,,,0.00,,2013-04-04 14:32:00,
2013-04-04 08:42:00,56.0,26.0,30.10,ENE,63,10.0,11.0,31,0.00,,,0.00,,2013-04-04 14:42:00,
2013-04-04 08:53:00,56.0,25.0,30.10,ENE,64,13.0,14.0,30,0.00,,,0.00,,2013-04-04 14:53:00,
2013-04-04 09:02:00,56.0,26.0,30.11,ENE,63,11.0,13.0,31,0.00,,,0.00,,2013-04-04 15:02:00,
2013-04-04 09:12:00,56.0,26.0,30.11,ENE,63,11.0,13.0,31,0.00,,,0.00,,2013-04-04 15:12:00,
2013-04-04 09:23:00,56.0,25.0,30.11,ENE,71,9.0,12.0,30,0.00,,,0.00,,2013-04-04 15:23:00,
2013-04-04 09:33:00,58.0,26.0,30.11,ENE,71,2.0,7.0,29,0.00,,,0.00,,2013-04-04 15:33:00,
2013-04-04 09:43:00,58.0,26.0,30.11,ENE,71,2.0,7.0,29,0.00,,,0.00,,2013-04-04 15:43:00,
2013-04-04 09:54:00,58.0,25.0,30.11,North,5,1.0,4.0,28,0.00,,,0.00,,2013-04-04 15:54:00,
2013-04-04 10:03:00,57.0,24.0,30.11,WNW,302,3.0,8.0,28,0.00,,,0.00,,2013-04-04 16:03:00,
2013-04-04 10:12:00,57.0,24.0,30.11,WNW,302,3.0,8.0,28,0.00,,,0.00,,2013-04-04 16:12:00,
2013-04-04 10:24:00,59.0,25.0,30.11,WNW,303,3.0,7.0,27,0.00,,,0.00,,2013-04-04 16:24:00,
2013-04-04 10:32:00,61.0,25.0,30.11,WNW,284,6.0,8.0,25,0.00,,,0.00,,2013-04-04 16:32:00,
2013-04-04 10:42:00,61.0,25.0,30.11,WNW,284,6.0,8.0,25,0.00,,,0.00,,2013-04-04 16:42:00,
2013-04-04 10:53:00,61.0,26.0,30.11,West,265,7.0,11.0,26,0.00,,,0.00,,2013-04-04 16:53:00,
2013-04-04 11:03:00,62.0,26.0,30.11,SW,225,7.0,13.0,25,0.00,,,0.00,,2013-04-04 17:03:00,
2013-04-04 11:13:00,62.0,26.0,30.11,SW,225,7.0,13.0,25,0.00,,,0.00,,2013-04-04 17:13:00,
2013-04-04 11:22:00,63.0,26.0,30.11,WSW,246,6.0,10.0,24,0.00,,,0.00,,2013-04-04 17:22:00,
2013-04-04 11:33:00,63.0,26.0,30.11,SSW,208,6.0,16.0,24,0.00,,,0.00,,2013-04-04 17:33:00,
2013-04-04 11:42:00,63.0,26.0,30.11,SSW,208,6.0,16.0,24,0.00,,,0.00,,2013-04-04 17:42:00,
2013-04-04 11:53:00,66.0,27.0,30.11,WSW,258,5.0,17.0,23,0.00,,,0.00,,2013-04-04 17:53:00,
2013-04-04 12:02:00,66.0,27.0,30.10,SW,228,9.0,14.0,23,0.00,,,0.00,,2013-04-04 18:02:00,
2013-04-04 12:12:00,66.0,27.0,30.10,SW,228,9.0,14.0,23,0.00,,,0.00,,2013-04-04 18:12:00,
2013-04-04 12:23:00,65.0,25.0,30.10,SW,229,3.0,14.0,22,0.00,,,0.00,,2013-04-04 18:23:00,
2013-04-04 12:32:00,67.0,25.0,30.09,SW,235,10.0,16.0,20,0.00,,,0.00,,2013-04-04 18:32:00,
2013-04-04 12:43:00,67.0,25.0,30.09,SW,235,10.0,16.0,20,0.00,,,0.00,,2013-04-04 18:43:00,
2013-04-04 12:52:00,68.0,24.0,30.08,SW,217,10.0,15.0,19,0.00,,,0.00,,2013-04-04 18:52:00,
2013-04-04 13:02:00,67.0,21.0,30.08,South,185,8.0,16.0,17,0.00,,,0.00,,2013-04-04 19:02:00,
2013-04-04 13:12:00,67.0,21.0,30.08,South,185,8.0,16.0,17,0.00,,,0.00,,2013-04-04 19:12:00,
2013-04-04 13:22:00,70.0,19.0,30.07,SW,228,9.0,17.0,14,0.00,,,0.00,,2013-04-04 19:22:00,
2013-04-04 13:32:00,70.0,20.0,30.06,WNW,285,10.0,16.0,15,0.00,,,0.00,,2013-04-04 19:32:00,
2013-04-04 13:42:00,70.0,20.0,30.06,WNW,285,10.0,16.0,15,0.00,,,0.00,,2013-04-04 19:42:00,
2013-04-04 13:52:00,71.0,16.0,30.05,West,279,2.0,7.0,12,0.00,,,0.00,,2013-04-04 19:52:00,
2013-04-04 14:03:00,68.0,19.0,30.04,WNW,288,11.0,24.0,15,0.00,,,0.00,,2013-04-04 20:03:00,
2013-04-04 14:12:00,68.0,19.0,30.04,WNW,288,11.0,24.0,15,0.00,,,0.00,,2013-04-04 20:12:00,
2013-04-04 14:22:00,70.0,19.0,30.04,WNW,293,4.0,15.0,14,0.00,,,0.00,,2013-04-04 20:22:00,
2013-04-04 14:32:00,70.0,19.0,30.03,WNW,293,5.0,17.0,14,0.00,,,0.00,,2013-04-04 20:32:00,
2013-04-04 14:42:00,70.0,19.0,30.03,WNW,293,5.0,17.0,14,0.00,,,0.00,,2013-04-04 20:42:00,
2013-04-04 14:53:00,71.0,18.0,30.03,WNW,302,10.0,18.0,13,0.00,,,0.00,,2013-04-04 20:53:00,
2013-04-04 15:02:00,72.0,17.0,30.02,SSW,202,5.0,10.0,12,0.00,,,0.00,,2013-04-04 21:02:00,
2013-04-04 15:12:00,72.0,17.0,30.02,SSW,202,5.0,10.0,12,0.00,,,0.00,,2013-04-04 21:12:00,
2013-04-04 15:22:00,72.0,17.0,30.01,West,261,12.0,19.0,12,0.00,,,0.00,,2013-04-04 21:22:00,
2013-04-04 15:32:00,72.0,17.0,29.99,SW,229,11.0,15.0,12,0.00,,,0.00,,2013-04-04 21:32:00,
2013-04-04 15:43:00,72.0,17.0,29.99,SW,229,11.0,15.0,12,0.00,,,0.00,,2013-04-04 21:43:00,
2013-04-04 15:53:00,72.0,17.0,29.99,SSW,201,10.0,12.0,12,0.00,,,0.00,,2013-04-04 21:53:00,
2013-04-04 16:03:00,72.0,17.0,29.99,SSW,201,10.0,12.0,12,0.00,,,0.00,,2013-04-04 22:03:00,
2013-04-04 16:12:00,72.0,17.0,29.99,SSW,201,10.0,12.0,12,0.00,,,0.00,,2013-04-04 22:12:00,
2013-04-04 16:23:00,73.0,13.0,29.98,South,186,6.0,11.0,10,0.00,,,0.00,,2013-04-04 22:23:00,
2013-04-04 16:33:00,72.0,15.0,29.98,NW,309,3.0,17.0,11,0.00,,,0.00,,2013-04-04 22:33:00,
2013-04-04 16:43:00,72.0,15.0,29.98,NW,309,3.0,17.0,11,0.00,,,0.00,,2013-04-04 22:43:00,
2013-04-04 16:53:00,73.0,15.0,29.97,West,262,6.0,17.0,11,0.00,,,0.00,,2013-04-04 22:53:00,
2013-04-04 17:02:00,72.0,15.0,29.96,SSW,213,9.0,17.0,11,0.00,,,0.00,,2013-04-04 23:02:00,
2013-04-04 17:12:00,72.0,15.0,29.96,SSW,213,9.0,17.0,11,0.00,,,0.00,,2013-04-04 23:12:00,
2013-04-04 17:22:00,72.0,12.0,29.96,SW,230,6.0,15.0,10,0.00,,,0.00,,2013-04-04 23:22:00,
2013-04-04 17:32:00,73.0,13.0,29.96,SW,218,6.0,10.0,10,0.00,,,0.00,,2013-04-04 23:32:00,
2013-04-04 17:42:00,73.0,13.0,29.96,SW,218,6.0,10.0,10,0.00,,,0.00,,2013-04-04 23:42:00,
2013-04-04 17:52:00,73.0,11.0,29.96,West,259,9.0,14.0,9,0.00,,,0.00,,2013-04-04 23:52:00,
2013-04-04 18:02:00,73.0,13.0,29.96,WSW,240,6.0,17.0,10,0.00,,,0.00,,2013-04-05 00:02:00,
2013-04-04 18:12:00,73.0,13.0,29.96,WSW,240,6.0,17.0,10,0.00,,,0.00,,2013-04-05 00:12:00,
2013-04-04 18:22:00,73.0,13.0,29.96,WSW,240,6.0,17.0,10,0.00,,,0.00,,2013-04-05 00:22:00,
2013-04-04 18:32:00,73.0,13.0,29.96,West,269,10.0,12.0,10,0.00,,,0.00,,2013-04-05 00:32:00,
2013-04-04 18:42:00,73.0,13.0,29.96,West,269,10.0,12.0,10,0.00,,,0.00,,2013-04-05 00:42:00,
2013-04-04 18:52:00,73.0,13.0,29.96,South,170,7.0,10.0,10,0.00,,,0.00,,2013-04-05 00:52:00,
2013-04-04 19:02:00,72.0,15.0,29.96,SW,234,7.0,12.0,11,0.00,,,0.00,,2013-04-05 01:02:00,
2013-04-04 19:12:00,72.0,15.0,29.96,SW,234,7.0,12.0,11,0.00,,,0.00,,2013-04-05 01:12:00,
2013-04-04 19:22:00,72.0,15.0,29.96,SW,234,7.0,12.0,11,0.00,,,0.00,,2013-04-05 01:22:00,
2013-04-04 19:32:00,71.0,14.0,29.95,South,171,5.0,7.0,11,0.00,,,0.00,,2013-04-05 01:32:00,
2013-04-04 19:42:00,71.0,14.0,29.95,South,171,5.0,7.0,11,0.00,,,0.00,,2013-04-05 01:42:00,
2013-04-04 19:53:00,71.0,14.0,29.96,South,184,10.0,13.0,11,0.00,,,0.00,,2013-04-05 01:53:00,
2013-04-04 20:03:00,70.0,13.0,29.96,South,184,10.0,12.0,11,0.00,,,0.00,,2013-04-05 02:03:00,
2013-04-04 20:12:00,70.0,13.0,29.96,South,184,10.0,12.0,11,0.00,,,0.00,,2013-04-05 02:12:00,
2013-04-04 20:22:00,70.0,13.0,29.96,South,190,11.0,13.0,11,0.00,,,0.00,,2013-04-05 02:22:00,
2013-04-04 20:32:00,70.0,13.0,29.96,SSW,194,12.0,14.0,11,0.00,,,0.00,,2013-04-05 02:32:00,
2013-04-04 20:42:00,70.0,13.0,29.96,SSW,194,12.0,14.0,11,0.00,,,0.00,,2013-04-05 02:42:00,
2013-04-04 20:52:00,69.0,12.0,29.96,South,188,15.0,17.0,11,0.00,,,0.00,,2013-04-05 02:52:00,
2013-04-04 21:02:00,69.0,12.0,29.96,South,186,16.0,18.0,11,0.00,,,0.00,,2013-04-05 03:02:00,
2013-04-04 21:12:00,69.0,12.0,29.96,South,186,16.0,18.0,11,0.00,,,0.00,,2013-04-05 03:12:00,
2013-04-04 21:22:00,68.0,12.0,29.96,South,185,17.0,19.0,11,0.00,,,0.00,,2013-04-05 03:22:00,
2013-04-04 21:32:00,68.0,12.0,29.97,South,187,17.0,19.0,11,0.00,,,0.00,,2013-04-05 03:32:00,
2013-04-04 21:43:00,68.0,12.0,29.97,South,187,17.0,19.0,11,0.00,,,0.00,,2013-04-05 03:43:00,
2013-04-04 21:54:00,68.0,12.0,29.98,South,186,17.0,19.0,11,0.00,,,0.00,,2013-04-05 03:54:00,
2013-04-04 22:02:00,69.0,12.0,29.98,South,191,16.0,19.0,11,0.00,,,0.00,,2013-04-05 04:02:00,
2013-04-04 22:12:00,69.0,12.0,29.98,South,191,16.0,19.0,11,0.00,,,0.00,,2013-04-05 04:12:00,
2013-04-04 22:22:00,67.0,13.0,29.99,SSW,211,13.0,16.0,12,0.00,,,0.00,,2013-04-05 04:22:00,
2013-04-04 22:32:00,67.0,13.0,29.99,SSW,200,14.0,16.0,12,0.00,,,0.00,,2013-04-05 04:32:00,
2013-04-04 22:42:00,67.0,13.0,29.99,SSW,200,14.0,16.0,12,0.00,,,0.00,,2013-04-05 04:42:00,
2013-04-04 22:52:00,68.0,12.0,29.99,SSW,198,14.0,16.0,11,0.00,,,0.00,,2013-04-05 04:52:00,
2013-04-04 23:02:00,68.0,12.0,29.99,SSW,201,11.0,16.0,11,0.00,,,0.00,,2013-04-05 05:02:00,
2013-04-04 23:12:00,68.0,12.0,29.99,SSW,201,11.0,16.0,11,0.00,,,0.00,,2013-04-05 05:12:00,
2013-04-04 23:22:00,67.0,13.0,29.99,SSW,202,13.0,15.0,12,0.00,,,0.00,,2013-04-05 05:22:00,
2013-04-04 23:32:00,67.0,13.0,29.98,South,187,16.0,18.0,12,0.00,,,0.00,,2013-04-05 05:32:00,
2013-04-04 23:42:00,67.0,13.0,29.98,South,187,16.0,18.0,12,0.00,,,0.00,,2013-04-05 05:42:00,
2013-04-04 23:52:00,67.0,13.0,29.98,South,184,16.0,19.0,12,0.00,,,0.00,,2013-04-05 05:52:00,